createdAt,value
2018-06-21T00:01:56.078Z,97717.80
2018-06-21T00:04:24.558Z,97742.14
2018-06-21T00:06:53.062Z,97759.39
2018-06-21T00:09:21.536Z,97746.20
2018-06-21T00:11:50.054Z,97768.52
2018-06-21T00:14:18.531Z,97724.89
2018-06-21T00:16:47.033Z,97753.30
2018-06-21T00:19:15.668Z,97765.48
2018-06-21T00:21:44.155Z,97732.00
2018-06-21T00:24:12.633Z,97747.22
2018-06-21T00:26:41.193Z,97750.27
2018-06-21T00:29:09.669Z,97750.27
2018-06-21T00:31:38.281Z,97756.35
2018-06-21T00:34:06.821Z,97780.70
2018-06-21T00:36:35.293Z,97780.70
2018-06-21T00:39:03.994Z,97813.17
2018-06-21T00:41:32.479Z,97822.30
2018-06-21T00:44:00.933Z,97785.77
2018-06-21T00:46:29.433Z,97830.42
2018-06-21T00:48:57.885Z,97808.09
2018-06-21T00:51:26.393Z,97820.27
2018-06-21T00:53:54.866Z,97861.88
2018-06-21T00:56:23.650Z,97850.71
2018-06-21T00:58:52.208Z,97878.11
2018-06-21T01:01:20.765Z,97816.21
2018-06-21T01:03:49.297Z,97838.53
2018-06-21T01:06:17.787Z,97792.88
2018-06-21T01:08:46.311Z,97812.16
2018-06-21T01:11:14.814Z,97828.39
2018-06-21T01:13:43.293Z,97792.88
2018-06-21T01:16:11.798Z,97812.16
2018-06-21T01:18:40.303Z,97833.46
2018-06-21T01:21:08.784Z,97849.70
2018-06-21T01:23:37.288Z,97814.19
2018-06-21T01:26:05.909Z,97827.38
2018-06-21T01:28:34.450Z,97839.55
2018-06-21T01:31:02.972Z,97861.88
2018-06-21T01:33:31.457Z,97837.52
2018-06-21T01:36:00.071Z,97775.63
2018-06-21T01:38:28.553Z,97800.99
2018-06-21T01:40:57.029Z,97810.12
2018-06-21T01:43:25.847Z,97788.81
2018-06-21T01:45:54.484Z,97846.66
2018-06-21T01:48:22.984Z,97797.95
2018-06-21T01:50:51.498Z,97754.31
2018-06-21T01:53:20.037Z,97788.81
2018-06-21T01:55:48.562Z,97750.27
2018-06-21T01:58:17.045Z,97779.69
2018-06-21T02:00:45.545Z,97795.92
2018-06-21T02:03:14.041Z,97753.30
2018-06-21T02:05:42.675Z,97790.84
2018-06-21T02:08:11.228Z,97786.79
2018-06-21T02:10:39.638Z,97790.84
2018-06-21T02:13:08.130Z,97774.61
2018-06-21T02:15:36.627Z,97803.02
2018-06-21T02:18:05.284Z,97814.19
2018-06-21T02:20:33.983Z,97811.14
2018-06-21T02:23:02.700Z,97777.66
2018-06-21T02:25:31.552Z,97784.76
2018-06-21T02:28:00.245Z,97792.88
2018-06-21T02:30:29.045Z,97765.48
2018-06-21T02:32:57.895Z,97792.88
2018-06-21T02:35:26.604Z,97774.61
2018-06-21T02:37:55.288Z,97751.27
2018-06-21T02:40:25.108Z,97798.97
2018-06-21T02:42:53.777Z,97777.66
2018-06-21T02:45:22.444Z,97772.58
2018-06-21T02:47:51.152Z,97784.76
2018-06-21T02:50:19.901Z,97789.83
2018-06-21T02:52:48.578Z,97794.91
2018-06-21T02:55:17.294Z,97743.16
2018-06-21T02:57:46.011Z,97764.47
2018-06-21T03:00:14.720Z,97739.09
2018-06-21T03:02:43.499Z,97781.71
2018-06-21T03:05:12.172Z,97779.69
2018-06-21T03:07:40.857Z,97747.22
2018-06-21T03:10:09.565Z,97714.75
2018-06-21T03:12:38.405Z,97798.97
2018-06-21T03:15:07.092Z,97795.92
2018-06-21T03:17:35.772Z,97831.44
2018-06-21T03:20:04.568Z,97871.00
2018-06-21T03:22:33.157Z,97871.00
2018-06-21T03:25:01.648Z,97914.64
2018-06-21T03:27:30.151Z,97918.70
2018-06-21T03:29:58.863Z,97919.70
2018-06-21T03:32:27.671Z,97944.06
2018-06-21T03:34:56.252Z,97953.20
2018-06-21T03:37:24.824Z,97946.09
2018-06-21T03:39:53.337Z,97938.98
2018-06-21T03:42:22.504Z,97968.41
2018-06-21T03:44:51.051Z,97942.03
2018-06-21T03:47:19.551Z,97982.63
2018-06-21T03:49:48.072Z,97989.72
2018-06-21T03:52:16.603Z,97998.86
2018-06-21T03:54:45.161Z,97997.84
2018-06-21T03:57:14.600Z,98009.00
2018-06-21T03:59:43.167Z,97987.69
2018-06-21T04:02:11.722Z,98006.97
2018-06-21T04:04:40.278Z,97992.77
2018-06-21T04:07:08.782Z,98029.30
2018-06-21T04:09:37.363Z,98020.16
2018-06-21T04:12:05.983Z,97998.86
2018-06-21T04:14:34.574Z,98043.50
2018-06-21T04:17:03.078Z,98042.48
2018-06-21T04:19:31.558Z,98033.36
2018-06-21T04:22:00.324Z,98032.34
2018-06-21T04:24:28.819Z,98032.34
2018-06-21T04:26:57.316Z,98058.72
2018-06-21T04:29:25.950Z,98091.19
2018-06-21T04:31:54.905Z,98042.48
2018-06-21T04:34:23.427Z,98081.05
2018-06-21T04:36:51.931Z,98076.98
2018-06-21T04:39:20.542Z,98059.73
2018-06-21T04:41:49.032Z,98063.80
2018-06-21T04:44:17.547Z,98039.45
2018-06-21T04:46:46.126Z,98091.19
2018-06-21T04:49:14.675Z,98062.78
2018-06-21T04:51:43.171Z,98100.33
2018-06-21T04:54:11.661Z,98097.28
2018-06-21T04:56:40.204Z,98060.75
2018-06-21T04:59:08.705Z,98061.77
2018-06-21T05:01:37.237Z,98104.39
2018-06-21T05:04:05.827Z,98114.53
2018-06-21T05:06:34.414Z,98094.23
2018-06-21T05:09:02.966Z,98129.75
2018-06-21T05:11:31.560Z,98101.34
2018-06-21T05:14:00.310Z,98150.05
2018-06-21T05:16:28.807Z,98124.68
2018-06-21T05:18:57.341Z,98147.00
2018-06-21T05:21:25.846Z,98128.73
2018-06-21T05:23:54.365Z,98154.11
2018-06-21T05:26:22.951Z,98164.26
2018-06-21T05:28:51.530Z,98174.41
2018-06-21T05:31:20.323Z,98185.56
2018-06-21T05:33:49.083Z,98169.33
2018-06-21T05:36:17.641Z,98163.23
2018-06-21T05:38:46.514Z,98181.51
2018-06-21T05:41:14.989Z,98173.39
2018-06-21T05:43:43.539Z,98177.45
2018-06-21T05:46:12.023Z,98196.73
2018-06-21T05:48:40.543Z,98190.64
2018-06-21T05:51:09.074Z,98197.74
2018-06-21T05:53:38.110Z,98178.47
2018-06-21T05:56:06.754Z,98169.33
2018-06-21T05:58:35.311Z,98197.74
2018-06-21T06:01:03.851Z,98184.55
2018-06-21T06:03:32.380Z,98174.41
2018-06-21T06:06:00.894Z,98181.51
2018-06-21T06:08:29.421Z,98235.29
2018-06-21T06:10:57.924Z,98205.86
2018-06-21T06:13:26.510Z,98204.84
2018-06-21T06:15:55.030Z,98234.27
2018-06-21T06:18:23.506Z,98226.16
2018-06-21T06:20:52.043Z,98242.39
2018-06-21T06:23:20.614Z,98231.23
2018-06-21T06:25:49.119Z,98216.01
2018-06-21T06:28:17.765Z,98214.99
2018-06-21T06:30:46.280Z,98205.86
2018-06-21T06:33:14.833Z,98227.17
2018-06-21T06:35:43.599Z,98210.94
2018-06-21T06:38:12.118Z,98254.57
2018-06-21T06:40:41.251Z,98269.80
2018-06-21T06:43:09.838Z,98238.34
2018-06-21T06:45:38.549Z,98250.52
2018-06-21T06:48:07.100Z,98248.48
2018-06-21T06:50:35.619Z,98197.74
2018-06-21T06:53:04.257Z,98219.05
2018-06-21T06:55:33.312Z,98224.13
2018-06-21T06:58:01.824Z,98232.24
2018-06-21T07:00:30.379Z,98202.81
2018-06-21T07:02:58.901Z,98150.05
2018-06-21T07:05:27.425Z,98191.66
2018-06-21T07:07:56.135Z,98141.93
2018-06-21T07:10:24.640Z,98125.70
2018-06-21T07:12:53.162Z,98056.70
2018-06-21T07:15:21.772Z,98074.95
2018-06-21T07:17:50.366Z,98100.33
2018-06-21T07:20:18.983Z,98140.92
2018-06-21T07:22:47.422Z,98040.45
2018-06-21T07:25:15.935Z,98023.21
2018-06-21T07:27:44.833Z,98173.39
2018-06-21T07:30:13.386Z,98118.59
2018-06-21T07:32:41.877Z,98154.11
2018-06-21T07:35:10.573Z,98124.68
2018-06-21T07:37:39.746Z,98029.30
2018-06-21T07:40:08.612Z,98070.90
2018-06-21T07:42:37.446Z,98124.68
2018-06-21T07:45:06.391Z,98087.14
2018-06-21T07:47:34.904Z,98072.93
2018-06-21T07:50:03.754Z,98131.78
2018-06-21T07:52:32.282Z,98188.61
2018-06-21T07:55:00.886Z,98156.14
2018-06-21T07:57:29.366Z,98186.58
2018-06-21T07:59:57.875Z,98210.94
2018-06-21T08:02:26.406Z,98271.82
2018-06-21T08:04:54.921Z,98241.37
2018-06-21T08:07:23.594Z,98258.63
2018-06-21T08:09:52.099Z,98264.72
2018-06-21T08:12:20.702Z,98250.52
2018-06-21T08:14:49.289Z,98226.16
2018-06-21T08:17:17.894Z,98170.34
2018-06-21T08:19:46.455Z,98165.27
2018-06-21T08:22:14.962Z,98074.95
2018-06-21T08:24:43.515Z,98018.13
2018-06-21T08:27:12.056Z,97935.94
2018-06-21T08:29:40.572Z,97895.36
2018-06-21T08:32:09.277Z,98021.17
2018-06-21T08:34:37.838Z,98067.86
2018-06-21T08:37:06.674Z,98095.25
2018-06-21T08:39:35.467Z,98059.73
2018-06-21T08:42:03.961Z,98176.43
2018-06-21T08:44:32.422Z,98302.27
2018-06-21T08:47:00.939Z,98257.61
2018-06-21T08:49:29.560Z,98292.12
2018-06-21T08:51:58.053Z,98281.97
2018-06-21T08:54:26.854Z,98185.56
2018-06-21T08:56:55.382Z,98131.78
2018-06-21T08:59:24.066Z,98113.52
2018-06-21T09:01:52.607Z,98060.75
2018-06-21T09:04:21.095Z,97950.15
2018-06-21T09:06:49.841Z,97943.05
2018-06-21T09:09:18.335Z,97952.17
2018-06-21T09:11:46.905Z,98001.90
2018-06-21T09:14:15.382Z,98126.71
2018-06-21T09:16:43.899Z,98001.90
2018-06-21T09:19:12.442Z,97954.21
2018-06-21T09:21:40.962Z,97912.61
2018-06-21T09:24:09.474Z,97970.45
2018-06-21T09:26:38.148Z,98091.19
2018-06-21T09:29:06.971Z,98018.13
2018-06-21T09:31:35.789Z,97954.21
2018-06-21T09:34:04.330Z,97899.41
2018-06-21T09:36:38.823Z,97928.84
2018-06-21T09:39:17.397Z,98045.53
2018-06-21T09:41:51.550Z,98032.34
2018-06-21T09:44:25.227Z,98004.94
2018-06-21T09:46:59.096Z,97984.65
2018-06-21T09:49:29.436Z,97928.84
2018-06-21T09:51:59.278Z,97997.84
2018-06-21T09:54:27.918Z,97920.72
2018-06-21T09:56:56.589Z,97893.33
2018-06-21T09:59:25.083Z,97944.06
2018-06-21T10:01:53.684Z,97989.72
2018-06-21T10:04:22.321Z,97918.70
2018-06-21T10:06:50.827Z,97950.15
2018-06-21T10:09:19.432Z,97796.94
2018-06-21T10:11:48.253Z,97746.20
2018-06-21T10:14:16.749Z,97798.97
2018-06-21T10:16:45.314Z,97851.72
2018-06-21T10:19:13.817Z,97892.31
2018-06-21T10:21:42.306Z,97878.11
2018-06-21T10:24:10.850Z,97814.19
2018-06-21T10:26:39.410Z,97893.33
2018-06-21T10:29:08.027Z,97931.88
2018-06-21T10:31:36.801Z,97900.43
2018-06-21T10:34:05.287Z,97738.08
2018-06-21T10:36:33.842Z,97736.05
2018-06-21T10:39:02.359Z,97918.70
2018-06-21T10:41:30.838Z,97993.78
2018-06-21T10:43:59.374Z,98027.27
2018-06-21T10:46:27.915Z,97935.94
2018-06-21T10:48:56.826Z,97925.80
2018-06-21T10:51:25.389Z,97866.95
2018-06-21T10:53:54.033Z,97807.08
2018-06-21T10:56:22.623Z,97872.02
2018-06-21T10:58:51.173Z,97874.05
2018-06-21T11:01:20.022Z,97851.72
2018-06-21T11:03:48.542Z,97811.14
2018-06-21T11:06:17.077Z,97773.59
2018-06-21T11:08:45.634Z,97737.07
2018-06-21T11:11:14.901Z,97862.89
2018-06-21T11:13:43.386Z,98011.03
2018-06-21T11:16:11.948Z,97904.48
2018-06-21T11:18:40.648Z,97877.09
2018-06-21T11:21:09.151Z,97753.30
2018-06-21T11:23:37.675Z,97660.97
2018-06-21T11:26:06.367Z,97831.44
2018-06-21T11:28:35.034Z,97752.29
2018-06-21T11:31:03.551Z,97703.59
2018-06-21T11:33:32.173Z,97611.26
2018-06-21T11:36:00.731Z,97632.56
2018-06-21T11:38:29.229Z,97820.27
2018-06-21T11:40:59.032Z,97907.53
2018-06-21T11:43:27.577Z,98052.64
2018-06-21T11:45:56.092Z,97887.23
2018-06-21T11:48:24.611Z,97765.48
2018-06-21T11:50:53.111Z,97754.31
2018-06-21T11:53:21.632Z,97704.60
2018-06-21T11:55:50.148Z,97649.81
2018-06-21T11:58:18.770Z,97544.30
2018-06-21T12:00:47.304Z,97637.64
2018-06-21T12:03:15.822Z,97622.42
2018-06-21T12:05:44.322Z,97659.96
2018-06-21T12:08:12.850Z,97561.55
2018-06-21T12:10:41.383Z,97672.14
2018-06-21T12:13:09.863Z,97740.11
2018-06-21T12:15:38.407Z,97696.48
2018-06-21T12:18:06.918Z,97703.59
2018-06-21T12:20:35.506Z,97544.30
2018-06-21T12:23:04.014Z,97639.66
2018-06-21T12:25:32.519Z,97691.41
2018-06-21T12:28:01.107Z,97860.86
2018-06-21T12:30:29.631Z,97794.91
2018-06-21T12:33:00.565Z,97790.84
2018-06-21T12:35:29.200Z,97689.38
2018-06-21T12:37:57.739Z,97728.95
2018-06-21T12:40:26.243Z,97617.34
2018-06-21T12:42:54.871Z,97632.56
2018-06-21T12:45:23.346Z,97747.22
2018-06-21T12:47:51.945Z,97677.20
2018-06-21T12:50:20.441Z,97687.36
2018-06-21T12:52:49.259Z,97805.05
2018-06-21T12:55:17.798Z,97868.98
2018-06-21T12:57:46.297Z,97843.61
2018-06-21T13:00:14.816Z,97825.34
2018-06-21T13:02:43.436Z,97813.17
2018-06-21T13:05:13.311Z,97894.34
2018-06-21T13:07:41.901Z,97869.99
2018-06-21T13:10:21.645Z,97822.30
2018-06-21T13:13:06.690Z,97761.42
2018-06-21T13:15:35.247Z,97882.17
2018-06-21T13:18:03.892Z,97897.39
2018-06-21T13:20:32.422Z,97807.08
2018-06-21T13:23:00.951Z,97860.86
2018-06-21T13:25:29.479Z,97799.98
2018-06-21T13:27:58.219Z,97827.38
2018-06-21T13:30:26.751Z,97891.30
2018-06-21T13:32:55.229Z,97780.70
2018-06-21T13:35:23.754Z,97697.50
2018-06-21T13:37:52.299Z,97719.82
2018-06-21T13:40:20.838Z,97693.44
2018-06-21T13:42:49.333Z,97771.57
2018-06-21T13:45:17.806Z,97880.13
2018-06-21T13:47:46.350Z,97985.66
2018-06-21T13:50:14.842Z,97948.12
2018-06-21T13:52:43.500Z,97912.61
2018-06-21T13:55:11.970Z,97814.19
2018-06-21T13:57:40.610Z,97740.11
2018-06-21T14:00:09.332Z,97674.16
2018-06-21T14:02:37.885Z,97735.04
2018-06-21T14:05:06.496Z,97874.05
2018-06-21T14:07:35.093Z,97767.51
2018-06-21T14:10:03.590Z,97822.30
2018-06-21T14:12:32.119Z,97741.12
2018-06-21T14:15:00.845Z,97701.56
2018-06-21T14:17:29.374Z,97795.92
2018-06-21T14:19:57.919Z,97828.39
2018-06-21T14:22:26.414Z,97810.12
2018-06-21T14:24:54.960Z,97726.92
2018-06-21T14:27:23.490Z,97622.42
2018-06-21T14:29:51.999Z,97798.97
2018-06-21T14:32:20.569Z,97780.70
2018-06-21T14:34:49.066Z,97788.81
2018-06-21T14:37:17.545Z,97711.70
2018-06-21T14:39:46.055Z,97707.64
2018-06-21T14:42:14.671Z,97738.08
2018-06-21T14:44:43.144Z,97829.41
2018-06-21T14:47:11.690Z,97892.31
2018-06-21T14:49:40.291Z,97724.89
2018-06-21T14:52:08.814Z,97645.75
2018-06-21T14:54:37.403Z,97683.30
2018-06-21T14:57:06.034Z,97637.64
2018-06-21T14:59:34.486Z,97647.78
2018-06-21T15:02:03.019Z,97744.17
2018-06-21T15:04:31.509Z,97770.55
2018-06-21T15:07:00.123Z,97853.75
2018-06-21T15:09:28.622Z,97786.79
2018-06-21T15:11:57.102Z,97861.88
2018-06-21T15:14:25.918Z,97764.47
2018-06-21T15:16:54.399Z,97788.81
2018-06-21T15:19:22.960Z,97707.64
2018-06-21T15:21:51.512Z,97914.64
2018-06-21T15:24:20.034Z,97976.53
2018-06-21T15:26:48.589Z,97957.25
2018-06-21T15:29:17.074Z,97942.03
2018-06-21T15:31:45.617Z,97899.41
2018-06-21T15:34:14.133Z,97754.31
2018-06-21T15:36:42.776Z,97740.11
2018-06-21T15:39:20.019Z,97682.28
2018-06-21T15:41:48.632Z,97733.02
2018-06-21T15:44:17.599Z,97646.77
2018-06-21T15:46:46.202Z,97652.86
2018-06-21T15:49:15.383Z,97670.11
2018-06-21T15:51:44.448Z,97665.03
2018-06-21T15:54:13.038Z,97777.66
2018-06-21T15:56:42.536Z,97898.41
2018-06-21T15:59:11.495Z,97913.63
2018-06-21T16:01:40.163Z,97864.91
2018-06-21T16:04:08.842Z,97914.64
2018-06-21T16:06:37.509Z,97900.43
2018-06-21T16:09:09.447Z,97919.70
2018-06-21T16:11:38.418Z,97915.65
2018-06-21T16:14:07.160Z,97932.90
2018-06-21T16:16:35.723Z,97905.50
2018-06-21T16:19:04.242Z,97863.91
2018-06-21T16:21:32.803Z,97788.81
2018-06-21T16:24:01.556Z,97774.61
2018-06-21T16:26:30.211Z,97948.12
2018-06-21T16:28:58.800Z,97934.93
2018-06-21T16:31:27.338Z,97947.11
2018-06-21T16:33:56.184Z,97946.09
2018-06-21T16:36:24.672Z,98126.71
2018-06-21T16:38:53.175Z,98132.80
2018-06-21T16:41:21.871Z,98044.52
2018-06-21T16:43:50.493Z,97991.75
2018-06-21T16:46:19.028Z,97925.80
2018-06-21T16:48:47.711Z,97949.13
2018-06-21T16:51:16.259Z,97904.48
2018-06-21T16:53:44.850Z,98001.90
2018-06-21T16:56:13.350Z,97963.34
2018-06-21T16:58:41.842Z,98059.73
2018-06-21T17:01:11.120Z,98040.45
2018-06-21T17:03:39.630Z,98115.55
2018-06-21T17:06:08.176Z,98100.33
2018-06-21T17:08:36.899Z,98168.31
2018-06-21T17:11:05.543Z,98220.06
2018-06-21T17:13:34.058Z,98196.73
2018-06-21T17:16:02.595Z,98255.59
2018-06-21T17:18:31.983Z,98222.09
2018-06-21T17:21:00.717Z,98243.41
2018-06-21T17:23:29.282Z,98219.05
2018-06-21T17:25:57.855Z,98252.55
2018-06-21T17:28:26.417Z,98229.20
2018-06-21T17:30:54.966Z,98274.86
2018-06-21T17:33:24.199Z,98263.70
2018-06-21T17:35:52.694Z,98325.61
2018-06-21T17:38:21.182Z,98318.50
2018-06-21T17:40:49.715Z,98329.66
2018-06-21T17:43:18.214Z,98363.16
2018-06-21T17:45:46.867Z,98306.33
2018-06-21T17:48:15.387Z,98269.80
2018-06-21T17:50:43.970Z,98231.23
2018-06-21T17:53:13.165Z,98210.94
2018-06-21T17:55:41.755Z,98030.31
2018-06-21T17:58:10.414Z,98020.16
2018-06-21T18:00:38.886Z,97975.52
2018-06-21T18:03:07.409Z,98087.14
2018-06-21T18:05:35.933Z,98035.38
2018-06-21T18:08:04.771Z,97952.17
2018-06-21T18:10:33.500Z,98022.19
2018-06-21T18:13:01.947Z,98057.70
2018-06-21T18:15:30.457Z,98118.59
2018-06-21T18:17:59.004Z,97934.93
2018-06-21T18:20:27.638Z,97938.98
2018-06-21T18:22:56.185Z,98145.98
2018-06-21T18:25:24.738Z,98110.48
2018-06-21T18:27:54.693Z,98252.55
2018-06-21T18:30:23.237Z,98237.32
2018-06-21T18:32:51.709Z,98285.02
2018-06-21T18:35:20.252Z,98244.42
2018-06-21T18:37:48.967Z,98305.31
2018-06-21T18:40:17.523Z,98319.52
2018-06-21T18:42:46.255Z,98307.34
2018-06-21T18:45:14.927Z,98372.28
2018-06-21T18:47:43.564Z,98330.68
2018-06-21T18:50:12.238Z,98373.30
2018-06-21T18:52:40.861Z,98414.91
2018-06-21T18:55:09.564Z,98413.89
2018-06-21T18:57:38.140Z,98385.48
2018-06-21T19:00:09.058Z,98411.86
2018-06-21T19:02:38.023Z,98397.66
2018-06-21T19:05:06.972Z,98351.99
2018-06-21T19:07:36.086Z,98305.31
2018-06-21T19:10:09.986Z,98368.23
2018-06-21T19:12:38.494Z,98357.06
2018-06-21T19:15:07.089Z,98381.42
2018-06-21T19:17:36.106Z,98434.19
2018-06-21T19:20:04.816Z,98449.41
2018-06-21T19:22:33.469Z,98462.61
2018-06-21T19:25:02.116Z,98498.13
2018-06-21T19:27:30.822Z,98498.13
2018-06-21T19:29:59.305Z,98519.44
2018-06-21T19:32:28.114Z,98584.39
2018-06-21T19:34:56.789Z,98572.21
2018-06-21T19:37:25.450Z,98544.81
2018-06-21T19:39:54.127Z,98561.05
2018-06-21T19:42:22.606Z,98550.90
2018-06-21T19:44:51.210Z,98567.14
2018-06-21T19:47:19.735Z,98608.75
2018-06-21T19:49:48.432Z,98608.75
2018-06-21T19:52:17.020Z,98596.56
2018-06-21T19:54:45.536Z,98652.39
2018-06-21T19:57:14.070Z,98622.95
2018-06-21T19:59:42.637Z,98596.56
2018-06-21T20:02:11.158Z,98601.64
2018-06-21T20:04:39.662Z,98617.88
2018-06-21T20:07:08.147Z,98621.94
2018-06-21T20:09:36.763Z,98656.45
2018-06-21T20:12:05.392Z,98654.42
2018-06-21T20:14:33.889Z,98635.13
2018-06-21T20:17:02.437Z,98635.13
2018-06-21T20:19:35.072Z,98632.09
2018-06-21T20:22:03.603Z,98624.98
2018-06-21T20:24:32.087Z,98668.63
2018-06-21T20:27:00.583Z,98659.49
2018-06-21T20:29:29.107Z,98630.06
2018-06-21T20:31:57.598Z,98621.94
2018-06-21T20:34:26.247Z,98653.41
2018-06-21T20:36:54.794Z,98656.45
2018-06-21T20:39:23.319Z,98641.22
2018-06-21T20:41:52.334Z,98622.95
2018-06-21T20:44:20.884Z,98620.92
2018-06-21T20:46:49.375Z,98623.97
2018-06-21T20:49:22.498Z,98643.25
2018-06-21T20:51:51.052Z,98660.51
2018-06-21T20:54:19.565Z,98687.91
2018-06-21T20:56:48.067Z,98700.09
2018-06-21T20:59:16.582Z,98728.51
2018-06-21T21:01:46.464Z,98723.43
2018-06-21T21:04:14.974Z,98750.83
2018-06-21T21:06:43.462Z,98743.73
2018-06-21T21:09:11.999Z,98779.25
2018-06-21T21:11:40.482Z,98733.58
2018-06-21T21:14:09.015Z,98772.15
2018-06-21T21:16:37.561Z,98767.07
2018-06-21T21:19:06.040Z,98814.78
2018-06-21T21:21:34.565Z,98764.03
2018-06-21T21:24:03.064Z,98737.64
2018-06-21T21:26:31.720Z,98756.92
2018-06-21T21:29:00.231Z,98751.84
2018-06-21T21:31:28.715Z,98781.28
2018-06-21T21:33:57.274Z,98788.39
2018-06-21T21:36:25.903Z,98814.78
2018-06-21T21:38:54.637Z,98788.39
2018-06-21T21:41:23.108Z,98779.25
2018-06-21T21:43:51.866Z,98851.31
2018-06-21T21:46:21.379Z,98788.39
2018-06-21T21:48:49.871Z,98816.80
2018-06-21T21:51:18.369Z,98804.63
2018-06-21T21:53:46.883Z,98804.63
2018-06-21T21:56:15.349Z,98848.27
2018-06-21T21:58:43.998Z,98795.48
2018-06-21T22:01:13.155Z,98828.98
2018-06-21T22:03:41.649Z,98866.53
2018-06-21T22:06:10.163Z,98822.89
2018-06-21T22:08:38.734Z,98858.42
2018-06-21T22:11:07.409Z,98863.49
2018-06-21T22:13:35.927Z,98844.21
2018-06-21T22:16:04.426Z,98816.80
2018-06-21T22:18:33.079Z,98824.92
2018-06-21T22:21:01.574Z,98874.66
2018-06-21T22:23:30.067Z,98867.55
2018-06-21T22:25:58.587Z,98892.92
2018-06-21T22:28:27.090Z,98843.20
2018-06-21T22:30:55.593Z,98890.89
2018-06-21T22:33:24.082Z,98863.49
2018-06-21T22:35:52.582Z,98854.36
2018-06-21T22:38:21.122Z,98824.92
2018-06-21T22:40:49.615Z,98852.33
2018-06-21T22:43:18.718Z,98832.03
2018-06-21T22:45:47.361Z,98888.87
2018-06-21T22:48:15.845Z,98843.20
2018-06-21T22:50:44.371Z,98856.39
2018-06-21T22:53:12.867Z,98859.44
2018-06-21T22:55:41.355Z,98874.66
2018-06-21T22:58:09.914Z,98898.00
2018-06-21T23:00:38.393Z,98864.51
2018-06-21T23:03:07.151Z,98861.46
2018-06-21T23:05:35.667Z,98874.66
2018-06-21T23:08:04.153Z,98906.13
2018-06-21T23:10:32.683Z,98892.92
2018-06-21T23:13:01.330Z,98835.08
2018-06-21T23:15:29.988Z,98855.38
2018-06-21T23:17:58.757Z,98881.77
2018-06-21T23:20:27.374Z,98888.87
2018-06-21T23:22:55.859Z,98910.18
2018-06-21T23:25:24.363Z,98901.05
2018-06-21T23:27:52.888Z,98843.20
2018-06-21T23:30:21.494Z,98875.67
2018-06-21T23:32:50.015Z,98847.25
2018-06-21T23:35:18.503Z,98862.48
2018-06-21T23:37:47.037Z,98835.08
2018-06-21T23:40:15.542Z,98917.28
2018-06-21T23:42:44.023Z,98850.30
2018-06-21T23:45:12.773Z,98843.20
2018-06-21T23:47:41.255Z,98888.87
2018-06-21T23:50:09.745Z,98889.88
2018-06-21T23:52:38.264Z,98847.25
2018-06-21T23:55:06.851Z,98900.03
2018-06-21T23:57:35.325Z,98888.87
